Time;durP1;ratioP1;P1;durP2;ratioP2;P2;SDS_P1;SDS_P2;PMS_P1;PMS_P2;Temp;Humidity;BMP_temperature;BMP_pressure;BME280_temperature;BME280_humidity;BME280_pressure;Samples;Min_cycle;Max_cycle;Signal;HPM_P1;HPM_P2
2022/03/20 00:00:46;;;;;;;17.00;15.17;;;;;;;-4.59;63.84;94684.91;5072885;28;20193;-76
2022/03/20 00:03:13;;;;;;;17.13;15.33;;;;;;;-4.60;64.57;94698.56;5071754;28;20201;-76
2022/03/20 00:05:39;;;;;;;17.80;15.90;;;;;;;-4.77;64.49;94672.03;5072725;28;20211;-76
2022/03/20 00:08:09;;;;;;;18.47;16.50;;;;;;;-4.62;64.98;94690.28;5055485;28;20215;-76
2022/03/20 00:10:42;;;;;;;18.67;15.60;;;;;;;-4.52;64.73;94691.84;5072087;28;20188;-76
2022/03/20 00:13:09;;;;;;;17.50;15.77;;;;;;;-4.93;65.75;94662.41;5054569;28;20236;-76
2022/03/20 00:15:36;;;;;;;16.20;14.50;;;;;;;-4.93;65.76;94671.78;5072635;28;20181;-76
2022/03/20 00:18:02;;;;;;;16.13;14.43;;;;;;;-4.69;65.67;94697.66;5054758;28;20336;-76
2022/03/20 00:20:28;;;;;;;15.37;13.93;;;;;;;-4.70;65.45;94692.69;5054612;28;20222;-76
2022/03/20 00:22:56;;;;;;;16.80;14.90;;;;;;;-4.29;63.85;94682.13;5054913;28;20216;-75
2022/03/20 00:25:21;;;;;;;22.43;16.50;;;;;;;-4.29;63.63;94687.22;5071582;28;20217;-76
2022/03/20 00:27:47;;;;;;;19.40;16.70;;;;;;;-4.66;64.93;94696.56;5072326;28;20194;-76
2022/03/20 00:30:12;;;;;;;22.50;17.80;;;;;;;-5.05;65.61;94655.88;5071915;28;20221;-76
2022/03/20 00:32:37;;;;;;;15.87;13.93;;;;;;;-4.64;66.45;94694.69;5072135;28;20186;-76
2022/03/20 00:35:04;;;;;;;15.10;13.77;;;;;;;-4.18;64.86;94692.97;5071437;28;20225;-76
2022/03/20 00:37:30;;;;;;;14.87;13.47;;;;;;;-4.61;65.23;94690.13;5071461;28;20225;-76
2022/03/20 00:39:56;;;;;;;15.07;13.63;;;;;;;-4.49;65.55;94685.66;5072115;28;20263;-76
2022/03/20 00:42:21;;;;;;;14.30;13.00;;;;;;;-4.23;64.87;94679.03;5071752;28;20197;-76
2022/03/20 00:44:47;;;;;;;13.93;12.73;;;;;;;-4.41;65.32;94655.22;5071314;28;21223;-76
2022/03/20 00:47:13;;;;;;;14.73;13.47;;;;;;;-4.43;65.05;94690.22;5054330;28;20185;-76
2022/03/20 00:49:39;;;;;;;14.37;13.03;;;;;;;-4.19;65.21;94670.16;5071192;28;20259;-76
2022/03/20 00:52:06;;;;;;;14.43;13.17;;;;;;;-4.02;64.85;94674.53;5073373;28;20204;-76
2022/03/20 00:54:31;;;;;;;15.43;14.17;;;;;;;-4.40;64.90;94656.81;5070889;28;20252;-76
2022/03/20 00:56:58;;;;;;;15.97;14.67;;;;;;;-4.14;65.14;94671.34;5053789;28;20217;-76
2022/03/20 00:59:23;;;;;;;15.67;14.27;;;;;;;-4.39;63.80;94630.41;5071072;28;20233;-76
2022/03/20 01:01:49;;;;;;;16.50;14.83;;;;;;;-3.98;63.63;94665.66;5071474;28;20193;-75
2022/03/20 01:04:14;;;;;;;16.33;14.83;;;;;;;-4.05;62.53;94670.53;5071224;28;20221;-76
2022/03/20 01:06:40;;;;;;;16.83;15.07;;;;;;;-4.10;62.70;94651.47;5071639;28;20241;-75
2022/03/20 01:09:05;;;;;;;16.77;15.10;;;;;;;-4.16;63.25;94652.03;5071138;28;20260;-76
2022/03/20 01:11:32;;;;;;;15.67;13.73;;;;;;;-3.96;62.42;94644.16;5071786;28;20208;-76
2022/03/20 01:13:58;;;;;;;16.97;15.33;;;;;;;-4.00;63.37;94675.22;5053061;28;21149;-76
2022/03/20 01:16:23;;;;;;;15.83;14.17;;;;;;;-4.17;63.36;94648.69;5071047;28;20201;-76
2022/03/20 01:18:49;;;;;;;17.03;15.37;;;;;;;-4.51;64.23;94667.19;5070713;28;20390;-77
2022/03/20 01:21:14;;;;;;;16.63;15.13;;;;;;;-4.78;65.16;94649.25;5069112;28;20186;-76
2022/03/20 01:23:39;;;;;;;16.90;14.97;;;;;;;-5.01;65.85;94647.00;5071313;28;20245;-75
2022/03/20 01:26:05;;;;;;;14.93;13.53;;;;;;;-5.04;63.25;94670.19;5071481;28;20182;-76
2022/03/20 01:28:30;;;;;;;14.73;13.33;;;;;;;-4.93;62.84;94643.00;5053210;28;20240;-76
2022/03/20 01:30:56;;;;;;;17.77;15.30;;;;;;;-4.90;62.80;94673.28;5071389;28;20300;-76
2022/03/20 01:33:22;;;;;;;23.77;16.40;;;;;;;-5.06;63.54;94666.97;5056251;28;20192;-77
2022/03/20 01:35:48;;;;;;;18.80;15.67;;;;;;;-5.27;63.37;94671.41;5052117;28;20166;-76
2022/03/20 01:38:19;;;;;;;21.43;15.63;;;;;;;-4.74;64.32;94676.06;5053045;28;20234;-76
2022/03/20 01:40:49;;;;;;;20.57;14.87;;;;;;;-4.95;63.54;94671.13;5071137;28;20186;-76
2022/03/20 01:43:15;;;;;;;20.73;15.63;;;;;;;-4.71;64.05;94680.88;5071027;28;20248;-76
2022/03/20 01:45:40;;;;;;;17.80;14.57;;;;;;;-4.93;64.51;94656.50;5071340;28;20201;-76
2022/03/20 01:48:06;;;;;;;18.03;15.30;;;;;;;-5.21;65.31;94675.13;5070705;28;20188;-76
2022/03/20 01:50:32;;;;;;;19.27;16.03;;;;;;;-5.81;65.01;94596.50;5071516;28;20227;-76
2022/03/20 01:52:58;;;;;;;22.90;16.37;;;;;;;-5.62;65.80;94655.81;5070815;28;20213;-76
2022/03/20 01:55:24;;;;;;;18.23;15.77;;;;;;;-5.64;65.72;94678.06;5035277;28;20293;-76
2022/03/20 01:57:50;;;;;;;17.90;16.00;;;;;;;-5.56;64.36;94685.84;5070795;28;20221;-75
2022/03/20 02:00:18;;;;;;;21.00;16.37;;;;;;;-5.39;63.69;94699.66;5070234;28;20221;-76
2022/03/20 02:02:44;;;;;;;21.60;16.63;;;;;;;-5.31;64.48;94698.03;5070640;28;20200;-76
2022/03/20 02:05:10;;;;;;;17.70;15.10;;;;;;;-5.29;64.45;94696.16;5053568;28;20233;-76
2022/03/20 02:07:37;;;;;;;24.30;17.23;;;;;;;-5.30;63.56;94684.41;5070149;28;20196;-76
2022/03/20 02:10:05;;;;;;;14.43;12.93;;;;;;;-5.19;62.05;94696.19;5069801;28;20260;-76
2022/03/20 02:12:31;;;;;;;14.33;13.03;;;;;;;-5.33;63.47;94687.19;5070150;28;20204;-76
2022/03/20 02:14:58;;;;;;;13.23;12.33;;;;;;;-5.62;62.71;94655.81;5070344;28;20221;-77
2022/03/20 02:17:28;;;;;;;14.83;11.70;;;;;;;-5.31;61.73;94677.66;5070187;28;20225;-77
2022/03/20 02:19:55;;;;;;;12.57;11.77;;;;;;;-5.49;62.45;94664.00;5052439;28;20261;-76
2022/03/20 02:22:20;;;;;;;13.17;12.07;;;;;;;-5.50;61.98;94666.69;5070340;28;20185;-76
2022/03/20 02:24:49;;;;;;;13.30;12.27;;;;;;;-5.48;62.14;94669.91;5069219;28;20244;-76
2022/03/20 02:27:24;;;;;;;11.47;10.63;;;;;;;-5.46;61.89;94684.09;5053283;28;20213;-77
2022/03/20 02:29:58;;;;;;;13.87;11.87;;;;;;;-5.41;61.87;94681.16;5069822;28;20264;-76
2022/03/20 02:32:28;;;;;;;12.20;11.30;;;;;;;-5.49;62.60;94679.28;5069842;28;20180;-76
2022/03/20 02:34:56;;;;;;;13.17;12.17;;;;;;;-5.55;62.88;94679.00;5051487;28;20229;-76
2022/03/20 02:37:23;;;;;;;12.60;11.70;;;;;;;-5.24;62.44;94677.94;5051410;28;20666;-76
2022/03/20 02:39:50;;;;;;;13.40;12.40;;;;;;;-5.22;62.08;94655.72;5069506;28;20229;-76
2022/03/20 02:42:16;;;;;;;12.77;11.73;;;;;;;-5.31;62.66;94676.88;5069636;28;20220;-76
2022/03/20 02:45:03;;;;;;;13.50;12.40;;;;;;;-5.14;62.66;94671.94;5068205;28;20233;-76
2022/03/20 02:47:31;;;;;;;12.23;11.33;;;;;;;-5.18;62.38;94662.16;5069215;28;20227;-78
2022/03/20 02:50:04;;;;;;;12.70;11.70;;;;;;;-5.43;63.23;94653.28;5069535;28;20230;-76
2022/03/20 02:52:51;;;;;;;13.17;12.17;;;;;;;-5.07;62.95;94683.19;5069451;28;20197;-76
2022/03/20 02:55:23;;;;;;;13.33;12.27;;;;;;;-5.14;62.83;94668.59;5068688;28;20292;-76
2022/03/20 02:57:50;;;;;;;12.77;11.67;;;;;;;-5.07;62.43;94662.81;5069624;28;20212;-76
2022/03/20 03:00:21;;;;;;;12.33;11.43;;;;;;;-5.12;62.96;94671.81;5069135;28;20759;-76
2022/03/20 03:02:47;;;;;;;13.77;12.43;;;;;;;-5.40;64.10;94668.28;5069939;28;20201;-76
2022/03/20 03:05:17;;;;;;;12.33;11.33;;;;;;;-5.48;64.29;94673.25;5069359;28;20254;-76
2022/03/20 03:13:14;;;;;;;13.43;12.17;;;;;;;-5.43;63.93;94678.75;5068467;28;20224;-76
2022/03/20 03:15:40;;;;;;;13.60;12.50;;;;;;;-5.44;63.76;94677.16;5070493;28;20181;-76
2022/03/20 03:18:05;;;;;;;14.37;13.00;;;;;;;-5.52;63.47;94669.34;5069688;28;20237;-76
2022/03/20 03:20:31;;;;;;;11.53;10.63;;;;;;;-5.37;63.66;94680.75;5069126;28;20197;-76
2022/03/20 03:22:57;;;;;;;12.73;11.73;;;;;;;-5.44;63.29;94668.69;5069296;28;20194;-76
2022/03/20 03:25:23;;;;;;;12.90;11.80;;;;;;;-5.40;63.06;94673.38;5050536;28;20221;-77
2022/03/20 03:27:48;;;;;;;13.63;12.63;;;;;;;-5.26;62.46;94679.84;5069610;28;20181;-77
2022/03/20 03:30:14;;;;;;;14.30;13.30;;;;;;;-5.32;62.76;94680.34;5068557;28;20217;-76
2022/03/20 03:32:41;;;;;;;12.43;11.53;;;;;;;-5.69;62.84;94619.13;5068442;28;20247;-77
2022/03/20 03:37:55;;;;;;;13.00;12.00;;;;;;;-5.45;63.23;94669.66;5068396;28;20224;-76
2022/03/20 03:40:20;;;;;;;13.37;12.17;;;;;;;-5.78;63.34;94612.31;5068482;28;20290;-76
2022/03/20 03:42:46;;;;;;;12.63;11.53;;;;;;;-6.30;62.55;94526.19;5069179;28;20190;-75
2022/03/20 03:45:12;;;;;;;13.30;12.40;;;;;;;-5.10;62.53;94677.56;5069086;28;20239;-76
2022/03/20 03:47:38;;;;;;;13.30;12.30;;;;;;;-5.65;62.36;94595.03;5067977;28;20257;-76
2022/03/20 03:50:05;;;;;;;13.10;12.13;;;;;;;-5.74;62.89;94616.19;5068469;28;20225;-74
2022/03/20 03:52:30;;;;;;;19.43;11.80;;;;;;;-5.15;62.83;94688.16;5069097;28;20189;-76
2022/03/20 03:54:56;;;;;;;12.50;11.50;;;;;;;-5.69;62.33;94606.41;5052180;28;20280;-76
2022/03/20 03:57:21;;;;;;;13.27;12.07;;;;;;;-5.03;63.17;94694.69;5051184;28;20212;-75
2022/03/20 03:59:47;;;;;;;13.90;12.77;;;;;;;-4.63;62.74;94688.66;5068569;28;20321;-76
2022/03/20 04:02:13;;;;;;;12.07;11.20;;;;;;;-5.43;61.56;94546.44;5067878;28;20216;-76
2022/03/20 04:04:39;;;;;;;13.30;12.17;;;;;;;-4.47;62.30;94694.00;5067959;28;20217;-76
2022/03/20 04:07:05;;;;;;;12.23;11.33;;;;;;;-5.28;63.23;94686.81;5069958;28;20198;-75
2022/03/20 04:09:31;;;;;;;12.47;11.50;;;;;;;-5.99;64.14;94614.16;5068482;28;20229;-75
2022/03/20 04:11:57;;;;;;;11.80;11.03;;;;;;;-5.41;63.39;94681.97;5068832;28;20189;-76
2022/03/20 04:14:23;;;;;;;12.57;11.67;;;;;;;-4.96;62.56;94679.69;5067828;28;20900;-76
2022/03/20 04:16:49;;;;;;;13.37;11.97;;;;;;;-5.79;62.70;94625.94;5068060;28;20288;-75
2022/03/20 04:19:14;;;;;;;12.47;11.27;;;;;;;-5.39;61.88;94679.28;5067909;28;20248;-76
2022/03/20 04:21:40;;;;;;;14.57;12.97;;;;;;;-6.03;61.40;94584.03;5068446;28;20199;-75
2022/03/20 04:24:07;;;;;;;12.47;11.37;;;;;;;-5.42;62.16;94672.72;5067902;28;20268;-75
2022/03/20 04:26:34;;;;;;;12.70;11.47;;;;;;;-5.51;61.74;94668.41;5069595;28;20200;-76
2022/03/20 04:29:01;;;;;;;14.17;12.77;;;;;;;-5.22;61.36;94682.00;5067229;28;20224;-75
2022/03/20 04:31:26;;;;;;;13.77;12.30;;;;;;;-5.83;61.13;94581.41;5070099;28;20189;-75
2022/03/20 04:33:54;;;;;;;12.03;11.13;;;;;;;-5.34;60.45;94647.41;5071815;28;20269;-76
2022/03/20 04:36:24;;;;;;;15.40;11.10;;;;;;;-4.93;60.33;94667.50;5071828;28;20220;-76
2022/03/20 04:38:55;;;;;;;11.17;10.27;;;;;;;-5.02;59.36;94687.88;5071603;28;20240;-76
2022/03/20 04:41:21;;;;;;;10.97;10.27;;;;;;;-5.00;59.18;94688.56;5071920;28;20243;-74
2022/03/20 04:43:49;;;;;;;12.33;11.47;;;;;;;-5.49;59.14;94607.22;5071363;28;20316;-76
2022/03/20 04:46:16;;;;;;;12.27;11.10;;;;;;;-4.67;59.33;94705.16;5072838;28;20714;-76
2022/03/20 04:59:38;;;;;;;12.37;11.30;;;;;;;-4.33;57.52;94699.47;5070970;28;20220;-75
2022/03/20 05:02:04;;;;;;;11.47;10.57;;;;;;;-4.25;57.94;94698.78;5070250;28;20201;-74
2022/03/20 05:04:29;;;;;;;11.97;11.03;;;;;;;-4.32;57.60;94690.06;5070450;28;20255;-75
2022/03/20 05:06:55;;;;;;;12.80;11.50;;;;;;;-3.92;57.32;94698.28;5054308;28;20182;-75
2022/03/20 05:14:49;;;;;;;13.00;12.03;;;;;;;-4.00;58.06;94698.16;5070692;28;20286;-75
2022/03/20 05:17:14;;;;;;;11.63;10.73;;;;;;;-3.98;56.76;94688.59;5053588;28;20233;-75
2022/03/20 05:19:40;;;;;;;12.27;11.07;;;;;;;-3.68;56.82;94713.84;5070383;28;20229;-75
2022/03/20 05:22:10;;;;;;;12.33;11.50;;;;;;;-3.65;55.70;94716.94;5054115;28;20239;-75
2022/03/20 05:24:37;;;;;;;13.47;11.70;;;;;;;-3.32;56.20;94716.38;5069819;28;20244;-75
2022/03/20 05:27:03;;;;;;;11.43;10.43;;;;;;;-3.45;55.20;94709.97;5072351;28;20292;-74
2022/03/20 05:29:29;;;;;;;15.60;11.33;;;;;;;-3.17;54.63;94721.75;5070713;28;20251;-74
2022/03/20 05:31:56;;;;;;;12.37;11.43;;;;;;;-3.11;54.01;94728.84;5073026;28;20235;-75
2022/03/20 05:34:22;;;;;;;12.47;11.67;;;;;;;-3.02;53.48;94733.13;5069720;28;20337;-75
2022/03/20 05:36:48;;;;;;;11.90;10.80;;;;;;;-2.74;53.74;94710.84;5054095;28;20209;-76
2022/03/20 05:39:14;;;;;;;13.93;12.83;;;;;;;-2.71;54.13;94724.13;5069692;28;20233;-76
2022/03/20 05:41:57;;;;;;;13.30;12.10;;;;;;;-2.90;53.27;94721.72;5070479;28;20193;-76
2022/03/20 05:44:24;;;;;;;12.73;11.77;;;;;;;-2.81;52.48;94723.41;5070003;28;20240;-77
2022/03/20 05:46:52;;;;;;;11.93;11.03;;;;;;;-2.52;51.72;94735.97;5054908;28;20205;-77
2022/03/20 05:49:22;;;;;;;12.60;11.40;;;;;;;-2.35;51.71;94743.59;5071115;28;20244;-76
2022/03/20 05:51:49;;;;;;;14.23;13.10;;;;;;;-2.11;52.50;94725.06;5070387;28;20182;-76
2022/03/20 05:54:15;;;;;;;13.97;12.77;;;;;;;-2.02;52.17;94727.50;5069670;28;20225;-76
2022/03/20 05:59:26;;;;;;;13.37;12.20;;;;;;;-1.95;51.17;94743.06;5069809;28;20227;-75
2022/03/20 06:01:51;;;;;;;13.10;12.20;;;;;;;-1.58;49.36;94753.84;5070539;28;20193;-75
2022/03/20 06:04:18;;;;;;;13.80;12.60;;;;;;;-1.69;49.62;94754.91;5071281;28;20225;-73
2022/03/20 06:06:43;;;;;;;12.40;11.60;;;;;;;-1.44;47.75;94750.69;5070505;28;20192;-75
2022/03/20 06:09:10;;;;;;;12.07;10.93;;;;;;;-1.41;47.17;94757.25;5052155;28;20225;-75
2022/03/20 06:11:35;;;;;;;12.50;11.40;;;;;;;-1.34;48.31;94746.28;5070461;28;21633;-75
2022/03/20 06:14:03;;;;;;;12.63;11.50;;;;;;;-1.68;49.90;94742.88;5069650;28;20304;-75
2022/03/20 06:16:28;;;;;;;12.10;11.30;;;;;;;-1.40;46.77;94740.97;5070203;28;20190;-75
2022/03/20 06:18:55;;;;;;;12.90;11.90;;;;;;;-1.34;47.43;94756.53;5069888;28;20225;-75
2022/03/20 06:21:22;;;;;;;12.20;11.13;;;;;;;-1.41;47.45;94747.00;5069801;28;20193;-75
2022/03/20 06:23:48;;;;;;;12.50;11.30;;;;;;;-1.45;49.95;94755.97;5069691;28;20229;-74
2022/03/20 06:26:14;;;;;;;13.43;12.33;;;;;;;-1.44;50.09;94755.00;5069949;28;20212;-75
2022/03/20 06:28:40;;;;;;;12.97;11.93;;;;;;;-1.30;48.03;94762.94;5069815;28;20233;-75
2022/03/20 06:31:10;;;;;;;13.90;12.70;;;;;;;-1.60;49.74;94744.72;5069404;28;20217;-74
2022/03/20 06:33:36;;;;;;;14.57;13.33;;;;;;;-1.25;48.18;94752.22;5070207;28;20247;-75
2022/03/20 06:36:02;;;;;;;13.93;12.83;;;;;;;-1.40;48.10;94756.31;5069584;28;20207;-75
2022/03/20 06:38:27;;;;;;;13.93;12.63;;;;;;;-1.16;48.90;94769.22;5069236;28;20245;-81
2022/03/20 06:40:53;;;;;;;13.43;12.27;;;;;;;-1.54;48.85;94744.88;5069785;28;20234;-74
2022/03/20 06:43:18;;;;;;;13.63;12.60;;;;;;;-1.02;46.14;94766.06;5069389;28;20209;-75
2022/03/20 06:45:44;;;;;;;13.50;12.30;;;;;;;-1.16;48.11;94753.84;5069633;28;20262;-74
2022/03/20 06:48:09;;;;;;;14.23;13.13;;;;;;;-1.15;48.68;94750.34;5069156;28;20283;-80
2022/03/20 06:50:35;;;;;;;13.70;12.53;;;;;;;-1.09;48.36;94762.53;5069667;28;20188;-77
2022/03/20 06:53:04;;;;;;;14.27;13.27;;;;;;;-0.75;45.44;94768.38;5047870;28;20253;-81
2022/03/20 06:55:33;;;;;;;14.83;13.40;;;;;;;-0.95;47.41;94767.06;5068113;28;20224;-77
2022/03/20 06:57:59;;;;;;;14.43;13.17;;;;;;;-0.96;47.53;94775.69;5070656;28;20235;-74
2022/03/20 07:00:26;;;;;;;14.00;12.80;;;;;;;-0.58;46.44;94775.16;5068051;28;20251;-78
2022/03/20 07:02:53;;;;;;;13.33;12.13;;;;;;;-0.78;47.37;94779.75;5066787;28;20192;-76
2022/03/20 07:05:19;;;;;;;13.40;12.30;;;;;;;-0.71;47.33;94769.66;5066321;28;20280;-76
2022/03/20 07:07:45;;;;;;;14.77;13.40;;;;;;;-0.99;47.92;94760.63;5051492;28;20226;-78
2022/03/20 07:10:13;;;;;;;15.27;13.93;;;;;;;-0.43;46.48;94769.22;5048425;28;20209;-74
2022/03/20 07:12:39;;;;;;;13.70;12.70;;;;;;;-0.25;45.58;94763.97;5064494;28;20194;-76
2022/03/20 07:15:05;;;;;;;14.50;13.40;;;;;;;-0.22;44.10;94781.59;5067954;28;21151;-77
2022/03/20 07:17:31;;;;;;;14.53;13.43;;;;;;;-0.60;45.88;94782.19;5067267;28;20233;-73
2022/03/20 07:19:58;;;;;;;13.53;12.43;;;;;;;-0.66;46.03;94777.69;5050138;28;20240;-79
2022/03/20 07:22:23;;;;;;;13.93;12.93;;;;;;;-0.24;45.53;94788.66;5067751;28;20189;-78
2022/03/20 07:24:49;;;;;;;14.97;13.67;;;;;;;-0.21;46.42;94784.00;5067367;28;20232;-79
2022/03/20 07:30:00;;;;;;;14.93;13.83;;;;;;;0.18;46.21;94785.91;5068142;28;20224;-78
2022/03/20 07:32:25;;;;;;;16.23;13.00;;;;;;;0.28;45.39;94774.47;5050595;28;20182;-79
2022/03/20 07:34:51;;;;;;;15.07;13.83;;;;;;;0.26;45.47;94775.63;5067507;28;20213;-78
2022/03/20 07:37:17;;;;;;;13.97;12.77;;;;;;;0.41;43.97;94779.13;5067389;28;20232;-72
2022/03/20 07:39:44;;;;;;;13.63;12.43;;;;;;;0.43;43.66;94757.44;5067849;28;20213;-77
2022/03/20 07:42:10;;;;;;;14.17;12.87;;;;;;;0.50;44.39;94783.28;5066943;28;20212;-82
2022/03/20 07:44:36;;;;;;;15.30;13.80;;;;;;;0.61;43.08;94781.16;5068622;28;20221;-79
2022/03/20 07:47:08;;;;;;;15.07;13.70;;;;;;;0.67;41.72;94780.50;5067805;28;20258;-81
2022/03/20 07:49:37;;;;;;;16.17;14.23;;;;;;;0.76;42.50;94787.22;5066469;28;20217;-83
2022/03/20 07:52:05;;;;;;;14.23;12.80;;;;;;;0.48;42.74;94770.59;5049635;28;20253;-79
2022/03/20 07:54:31;;;;;;;14.57;13.33;;;;;;;0.62;42.78;94775.06;5067549;28;20209;-83
2022/03/20 07:56:56;;;;;;;16.57;14.23;;;;;;;0.64;43.28;94770.53;5067241;28;20212;-88
2022/03/20 07:59:22;;;;;;;15.33;13.70;;;;;;;0.60;43.37;94769.28;5067892;28;20221;-82
2022/03/20 08:01:47;;;;;;;14.37;13.27;;;;;;;0.45;44.21;94749.56;5067894;28;20249;-84
2022/03/20 08:04:13;;;;;;;15.23;13.83;;;;;;;0.77;42.09;94770.84;5049475;28;20221;-83
2022/03/20 08:06:38;;;;;;;14.77;13.47;;;;;;;0.60;43.16;94773.63;5071579;28;20189;-82
2022/03/20 08:09:04;;;;;;;14.57;13.47;;;;;;;0.59;42.17;94767.66;5054373;28;20247;-79
2022/03/20 08:11:30;;;;;;;14.50;13.40;;;;;;;0.33;42.03;94743.97;5072305;28;20185;-84
2022/03/20 08:13:57;;;;;;;14.83;13.53;;;;;;;0.37;43.07;94762.44;5052338;28;20225;-78
2022/03/20 08:16:26;;;;;;;14.97;13.77;;;;;;;0.44;42.87;94763.38;5052916;28;20181;-78
2022/03/20 08:18:56;;;;;;;16.20;14.53;;;;;;;0.45;42.41;94760.63;5049834;28;20226;-76
2022/03/20 08:21:22;;;;;;;14.23;13.03;;;;;;;0.41;42.46;94743.97;5049708;28;20205;-76
2022/03/20 08:23:47;;;;;;;15.40;13.93;;;;;;;0.51;42.15;94747.16;5050647;28;20233;-78
2022/03/20 08:26:13;;;;;;;14.37;13.17;;;;;;;0.65;41.24;94746.47;5050094;28;20198;-81
2022/03/20 08:28:41;;;;;;;14.87;13.37;;;;;;;0.83;41.22;94744.47;5049766;28;20248;-78
2022/03/20 08:31:11;;;;;;;13.03;12.03;;;;;;;1.07;41.54;94746.13;5051150;28;20186;-72
2022/03/20 08:33:36;;;;;;;13.03;12.00;;;;;;;0.96;41.73;94733.63;5051144;28;20287;-82
2022/03/20 08:36:05;;;;;;;13.40;12.30;;;;;;;1.33;40.30;94750.00;5051716;28;20230;-76
2022/03/20 08:38:31;;;;;;;15.40;13.93;;;;;;;1.37;39.63;94750.47;5050186;28;20230;-75
2022/03/20 08:40:57;;;;;;;14.57;13.07;;;;;;;1.20;39.86;94748.91;5050526;28;20201;-76
2022/03/20 08:43:22;;;;;;;14.20;12.83;;;;;;;1.12;40.83;94744.63;5051117;28;20194;-75
2022/03/20 08:45:49;;;;;;;13.97;12.67;;;;;;;1.15;39.08;94739.16;5051317;28;20208;-74
2022/03/20 08:48:14;;;;;;;15.33;14.07;;;;;;;1.12;40.61;94725.84;5051797;28;20266;-75
2022/03/20 08:50:44;;;;;;;12.60;11.67;;;;;;;1.20;40.40;94715.47;5050803;28;20189;-83
2022/03/20 08:53:10;;;;;;;15.00;13.70;;;;;;;1.49;39.64;94723.34;5050438;28;20201;-76
2022/03/20 08:55:36;;;;;;;14.13;12.83;;;;;;;1.66;39.86;94727.41;5050453;28;20236;-77
2022/03/20 08:58:04;;;;;;;14.03;12.70;;;;;;;1.57;38.27;94729.22;5052331;28;20218;-84
2022/03/20 09:00:32;;;;;;;15.10;13.70;;;;;;;1.76;38.92;94724.59;5047364;28;20216;-83
2022/03/20 09:02:57;;;;;;;14.97;12.57;;;;;;;0.83;39.32;94728.22;5049325;28;20332;-82
2022/03/20 09:05:23;;;;;;;13.23;12.33;;;;;;;0.36;40.81;94704.31;5045885;28;20214;-82
2022/03/20 09:07:49;;;;;;;12.57;11.57;;;;;;;1.12;38.86;94718.13;5045034;28;20190;-77
2022/03/20 09:10:16;;;;;;;14.20;13.10;;;;;;;1.32;39.30;94714.13;5046809;28;20233;-76
2022/03/20 09:12:43;;;;;;;15.77;14.27;;;;;;;1.24;41.02;94717.56;5048059;28;20199;-78
2022/03/20 09:15:12;;;;;;;14.40;13.17;;;;;;;1.45;40.30;94711.78;5049900;28;20241;-77
2022/03/20 09:20:31;;;;;;;15.63;13.63;;;;;;;1.78;39.67;94699.47;5067365;28;20236;-78
2022/03/20 09:22:57;;;;;;;15.40;13.73;;;;;;;1.91;40.64;94699.69;5050269;28;20284;-77
2022/03/20 09:25:22;;;;;;;13.37;12.07;;;;;;;2.07;37.59;94707.25;5066258;28;20217;-78
2022/03/20 09:27:49;;;;;;;15.63;13.17;;;;;;;1.95;38.04;94694.00;5068612;28;20196;-80
2022/03/20 09:30:15;;;;;;;14.17;12.93;;;;;;;1.75;38.33;94695.47;5052022;28;20229;-83
2022/03/20 09:32:41;;;;;;;14.33;12.33;;;;;;;2.00;38.67;94702.00;5069239;28;20239;-89
2022/03/20 09:35:08;;;;;;;13.93;12.67;;;;;;;1.95;38.38;94664.84;5068791;28;20229;-89
2022/03/20 09:37:34;;;;;;;13.60;12.43;;;;;;;1.88;36.96;94663.97;5055566;28;20206;-92
2022/03/20 09:39:59;;;;;;;13.30;12.00;;;;;;;1.92;38.07;94675.50;5052676;28;20217;-89
2022/03/20 09:42:25;;;;;;;12.63;11.70;;;;;;;2.17;35.95;94690.56;5053295;28;20193;-91
2022/03/20 09:44:51;;;;;;;12.80;11.50;;;;;;;2.10;36.15;94683.72;5051453;28;20225;-77
2022/03/20 09:47:19;;;;;;;12.10;11.23;;;;;;;2.03;36.58;94675.09;5068451;28;20192;-86
2022/03/20 09:49:46;;;;;;;14.40;13.33;;;;;;;2.04;36.02;94674.91;5068310;28;20244;-86
2022/03/20 09:52:13;;;;;;;12.90;11.93;;;;;;;1.99;35.64;94676.44;5068744;28;20201;-92
2022/03/20 09:54:39;;;;;;;12.87;11.80;;;;;;;1.94;36.15;94681.28;5069508;28;20284;-86
2022/03/20 09:57:06;;;;;;;13.27;12.07;;;;;;;2.12;36.50;94681.78;5067853;28;20213;-86
2022/03/20 09:59:33;;;;;;;13.90;12.53;;;;;;;2.15;38.21;94665.97;5071177;28;20213;-88
2022/03/20 10:02:03;;;;;;;12.40;11.47;;;;;;;2.18;35.75;94675.91;5070464;28;20189;-87
2022/03/20 10:04:28;;;;;;;16.73;11.83;;;;;;;1.99;36.88;94663.53;5052315;28;20247;-89
2022/03/20 10:06:54;;;;;;;13.47;12.50;;;;;;;2.22;36.46;94656.53;5052304;28;20189;-86
2022/03/20 10:09:23;;;;;;;14.70;13.20;;;;;;;1.75;39.08;94581.38;5066152;28;20220;-92
2022/03/20 10:11:54;;;;;;;15.77;14.17;;;;;;;2.25;38.55;94654.41;5050384;28;20221;-85
2022/03/20 10:14:26;;;;;;;14.30;13.10;;;;;;;2.50;38.56;94665.25;5066731;28;20217;-91
2022/03/20 10:17:03;;;;;;;13.93;12.83;;;;;;;2.35;37.23;94657.50;5069790;28;20247;-90
2022/03/20 10:19:30;;;;;;;14.60;13.30;;;;;;;2.50;35.56;94660.09;5052469;28;20228;-84
2022/03/20 10:22:00;;;;;;;12.20;11.30;;;;;;;2.35;36.27;94659.31;5070326;28;20200;-83
2022/03/20 10:24:27;;;;;;;13.47;12.37;;;;;;;2.53;34.39;94633.94;5066666;28;20237;-84
2022/03/20 10:27:03;;;;;;;12.83;11.83;;;;;;;2.20;34.48;94641.25;5068899;28;20202;-80
2022/03/20 10:29:30;;;;;;;12.03;11.20;;;;;;;2.73;33.63;94653.03;5068231;28;20240;-84
2022/03/20 10:31:59;;;;;;;12.60;11.53;;;;;;;2.19;36.29;94651.75;5069436;28;20229;-84
2022/03/20 10:34:24;;;;;;;12.27;11.27;;;;;;;2.06;36.72;94651.53;5069247;28;20218;-84
2022/03/20 10:36:51;;;;;;;15.63;14.27;;;;;;;2.02;35.25;94634.84;5070361;28;20217;-82
2022/03/20 10:39:19;;;;;;;15.07;12.13;;;;;;;2.12;36.44;94633.59;5052504;28;20240;-80
2022/03/20 10:41:53;;;;;;;12.87;11.80;;;;;;;2.68;35.02;94647.59;5069049;28;20181;-84
2022/03/20 10:44:24;;;;;;;12.53;11.50;;;;;;;2.88;34.42;94646.06;5069263;28;20225;-83
2022/03/20 10:47:00;;;;;;;11.87;10.87;;;;;;;3.02;33.71;94637.47;5069333;28;20197;-82
2022/03/20 10:49:27;;;;;;;13.37;12.17;;;;;;;2.85;33.90;94618.84;5051133;28;20262;-83
2022/03/20 10:52:11;;;;;;;12.33;11.30;;;;;;;2.94;34.80;94617.75;5069566;28;20170;-86
2022/03/20 10:54:43;;;;;;;13.60;12.50;;;;;;;3.26;33.15;94635.34;5068785;28;20219;-78
2022/03/20 10:57:11;;;;;;;13.30;12.10;;;;;;;3.05;35.29;94639.72;5069205;28;20264;-77
2022/03/20 10:59:37;;;;;;;13.23;12.23;;;;;;;2.80;36.03;94604.91;5068819;28;20221;-78
2022/03/20 11:02:05;;;;;;;13.33;12.23;;;;;;;2.71;35.12;94616.28;5069544;28;20200;-79
2022/03/20 11:04:32;;;;;;;12.43;11.50;;;;;;;2.97;35.52;94622.53;5049740;28;20289;-84
2022/03/20 11:07:00;;;;;;;13.00;11.97;;;;;;;3.02;37.77;94622.00;5067889;28;20193;-86
2022/03/20 11:09:26;;;;;;;12.70;11.73;;;;;;;2.85;36.44;94599.97;5068147;28;20221;-83
2022/03/20 11:11:58;;;;;;;13.77;12.63;;;;;;;2.59;34.04;94540.41;5065235;28;20312;-86
2022/03/20 11:14:26;;;;;;;14.73;13.53;;;;;;;3.53;33.56;94618.31;5066991;28;20244;-83
2022/03/20 11:16:59;;;;;;;14.07;12.80;;;;;;;3.61;32.62;94607.81;5068094;28;20204;-81
2022/03/20 11:19:29;;;;;;;14.10;12.93;;;;;;;3.50;32.82;94592.88;5066070;28;20217;-79
2022/03/20 11:21:59;;;;;;;13.30;12.13;;;;;;;3.58;33.68;94599.69;5066838;28;20189;-82
2022/03/20 11:24:25;;;;;;;13.37;12.27;;;;;;;3.37;32.95;94585.00;5066758;28;20352;-82
2022/03/20 11:26:53;;;;;;;13.53;12.33;;;;;;;3.45;33.63;94590.03;5066891;28;20188;-81
2022/03/20 11:29:21;;;;;;;13.43;12.20;;;;;;;3.59;32.66;94609.81;5049808;28;20225;-82
2022/03/20 11:31:48;;;;;;;13.37;12.33;;;;;;;3.70;34.02;94604.16;5066433;28;20198;-82
2022/03/20 11:34:16;;;;;;;15.23;13.77;;;;;;;3.69;33.29;94592.19;5049532;28;20233;-83
2022/03/20 11:37:00;;;;;;;18.73;13.70;;;;;;;3.75;33.71;94606.94;5064871;28;20194;-85
2022/03/20 11:39:25;;;;;;;13.47;12.47;;;;;;;3.55;33.05;94598.25;5048728;28;20244;-82
2022/03/20 11:42:21;;;;;;;14.93;13.73;;;;;;;3.23;33.05;94591.84;5049301;28;20231;-84
2022/03/20 11:45:07;;;;;;;14.10;12.70;;;;;;;3.21;34.22;94595.59;5053304;28;20233;-84
2022/03/20 11:47:38;;;;;;;13.33;12.33;;;;;;;3.49;33.94;94591.25;5070246;28;20214;-84
2022/03/20 11:50:26;;;;;;;12.70;11.70;;;;;;;3.82;33.17;94587.13;5070711;28;20528;-84
2022/03/20 11:53:00;;;;;;;15.07;13.53;;;;;;;3.59;33.59;94560.75;5055364;28;20189;-83